createdAt,value
2023-02-26T00:00:16.930Z,2.06
2023-02-26T00:04:20.057Z,2.06
2023-02-26T00:08:24.408Z,2.05
2023-02-26T00:12:28.291Z,2.01
2023-02-26T00:16:33.944Z,2.00
2023-02-26T00:20:38.358Z,2.02
2023-02-26T00:24:42.816Z,2.05
2023-02-26T00:28:46.573Z,2.05
2023-02-26T00:32:51.804Z,2.02
2023-02-26T00:37:09.878Z,2.00
2023-02-26T00:41:15.718Z,1.95
2023-02-26T00:45:19.641Z,1.95
2023-02-26T00:49:33.650Z,1.92
2023-02-26T00:53:48.384Z,1.92
2023-02-26T00:57:52.791Z,1.86
2023-02-26T01:01:55.846Z,1.81
2023-02-26T01:05:59.050Z,1.83
2023-02-26T01:10:02.585Z,1.80
2023-02-26T01:14:07.895Z,1.73
2023-02-26T01:18:15.740Z,1.72
2023-02-26T01:22:23.694Z,1.69
2023-02-26T01:26:29.606Z,1.68
2023-02-26T01:30:34.780Z,1.65
2023-02-26T01:34:45.675Z,1.64
2023-02-26T01:38:59.269Z,1.58
2023-02-26T01:43:09.498Z,1.61
2023-02-26T01:47:19.846Z,1.63
2023-02-26T01:51:48.812Z,1.58
2023-02-26T01:55:57.236Z,1.57
2023-02-26T02:00:00.494Z,1.54
2023-02-26T02:04:07.312Z,1.53
2023-02-26T02:08:11.697Z,1.57
2023-02-26T02:12:28.082Z,1.56
2023-02-26T02:16:42.201Z,1.54
2023-02-26T02:21:23.774Z,1.49
2023-02-26T02:25:50.339Z,1.49
2023-02-26T02:30:26.512Z,1.44
2023-02-26T02:34:39.070Z,1.48
2023-02-26T02:38:48.274Z,1.41
2023-02-26T02:42:57.332Z,1.38
2023-02-26T02:47:01.522Z,1.33
2023-02-26T02:51:10.145Z,1.30
2023-02-26T02:55:19.579Z,1.31
2023-02-26T02:59:26.280Z,1.31
2023-02-26T03:03:35.347Z,1.30
2023-02-26T03:07:46.790Z,1.31
2023-02-26T03:11:51.052Z,1.25
2023-02-26T03:16:07.892Z,1.21
2023-02-26T03:20:20.398Z,1.23
2023-02-26T03:24:31.060Z,1.18
2023-02-26T03:28:42.539Z,1.15
2023-02-26T03:32:56.374Z,1.16
2023-02-26T03:37:06.026Z,1.11
2023-02-26T03:41:17.401Z,1.07
2023-02-26T03:45:24.670Z,1.12
2023-02-26T03:49:31.642Z,1.06
2023-02-26T03:53:39.939Z,1.06
2023-02-26T03:57:51.625Z,1.04
2023-02-26T04:02:09.469Z,1.00
2023-02-26T04:06:14.976Z,0.99
2023-02-26T04:10:31.683Z,1.01
2023-02-26T04:14:36.164Z,1.04
2023-02-26T04:18:39.562Z,1.03
2023-02-26T04:22:43.897Z,1.03
2023-02-26T04:26:47.820Z,0.98
2023-02-26T04:30:53.647Z,0.99
2023-02-26T04:34:56.838Z,1.00
2023-02-26T04:39:01.357Z,1.01
2023-02-26T04:43:04.504Z,1.02
2023-02-26T04:47:14.425Z,0.98
2023-02-26T04:51:18.591Z,1.03
2023-02-26T04:55:21.747Z,1.03
2023-02-26T04:59:24.915Z,0.94
2023-02-26T05:03:29.566Z,0.91
2023-02-26T05:07:33.603Z,0.87
2023-02-26T05:11:37.197Z,0.85
2023-02-26T05:15:43.235Z,0.83
2023-02-26T05:19:49.927Z,0.83
2023-02-26T05:23:52.984Z,0.81
2023-02-26T05:27:56.878Z,0.76
2023-02-26T05:32:00.276Z,0.72
2023-02-26T05:36:05.153Z,0.70
2023-02-26T05:40:11.559Z,0.70
2023-02-26T05:44:14.836Z,0.69
2023-02-26T05:48:17.869Z,0.69
2023-02-26T05:52:22.326Z,0.69
2023-02-26T05:56:25.596Z,0.65
2023-02-26T06:00:28.895Z,0.57
2023-02-26T06:04:31.859Z,0.52
2023-02-26T06:08:36.406Z,0.47
2023-02-26T06:12:40.122Z,0.47
2023-02-26T06:16:43.283Z,0.45
2023-02-26T06:20:46.324Z,0.42
2023-02-26T06:24:51.083Z,0.43
2023-02-26T06:28:54.246Z,0.43
2023-02-26T06:32:57.499Z,0.42
2023-02-26T06:37:00.491Z,0.44
2023-02-26T06:41:05.288Z,0.43
2023-02-26T06:45:09.070Z,0.44
2023-02-26T06:49:12.145Z,0.44
2023-02-26T06:53:15.125Z,0.46
2023-02-26T06:57:19.588Z,0.48
2023-02-26T07:01:22.717Z,0.52
2023-02-26T07:05:25.934Z,0.51
2023-02-26T07:09:29.311Z,0.53
2023-02-26T07:13:33.779Z,0.56
2023-02-26T07:17:36.868Z,0.53
2023-02-26T07:21:40.019Z,0.57
2023-02-26T07:25:43.116Z,0.59
2023-02-26T07:29:47.572Z,0.59
2023-02-26T07:33:50.836Z,0.64
2023-02-26T07:37:53.962Z,0.68
2023-02-26T07:41:56.941Z,0.75
2023-02-26T07:46:01.416Z,0.75
2023-02-26T07:50:05.057Z,0.76
2023-02-26T07:54:08.150Z,0.79
2023-02-26T07:58:11.128Z,0.82
2023-02-26T08:02:15.595Z,0.87
2023-02-26T08:06:18.722Z,0.87
2023-02-26T08:10:22.085Z,0.94
2023-02-26T08:14:25.150Z,0.93
2023-02-26T08:18:29.558Z,1.01
2023-02-26T08:22:32.602Z,1.03
2023-02-26T08:26:37.870Z,1.01
2023-02-26T08:30:40.890Z,0.97
2023-02-26T08:34:45.881Z,1.00
2023-02-26T08:38:48.967Z,0.99
2023-02-26T08:42:52.160Z,0.99
2023-02-26T08:46:56.484Z,0.97
2023-02-26T08:51:00.993Z,1.00
2023-02-26T08:55:04.011Z,1.09
2023-02-26T08:59:07.117Z,1.15
2023-02-26T09:03:10.221Z,1.20
2023-02-26T09:07:14.689Z,1.22
2023-02-26T09:11:17.847Z,1.22
2023-02-26T09:15:21.471Z,1.24
2023-02-26T09:19:25.177Z,1.36
2023-02-26T09:23:30.226Z,1.48
2023-02-26T09:27:33.592Z,1.53
2023-02-26T09:31:36.784Z,1.51
2023-02-26T09:35:40.058Z,1.49
2023-02-26T09:39:44.616Z,1.50
2023-02-26T09:44:14.578Z,1.53
2023-02-26T09:48:21.884Z,1.63
2023-02-26T09:52:28.592Z,1.72
2023-02-26T09:56:37.993Z,1.75
2023-02-26T10:00:48.885Z,1.81
2023-02-26T10:04:59.760Z,1.89
2023-02-26T10:09:26.044Z,2.01
2023-02-26T10:13:49.014Z,2.06
2023-02-26T10:18:07.961Z,2.12
2023-02-26T10:22:21.770Z,2.17
2023-02-26T10:26:28.761Z,2.12
2023-02-26T10:30:42.014Z,2.13
2023-02-26T10:34:48.913Z,2.36
2023-02-26T10:38:59.374Z,2.45
2023-02-26T10:43:12.658Z,2.46
2023-02-26T10:47:29.880Z,2.48
2023-02-26T10:51:37.141Z,2.54
2023-02-26T10:55:44.599Z,2.57
2023-02-26T10:59:47.579Z,2.69
2023-02-26T11:03:58.488Z,2.73
2023-02-26T11:08:05.668Z,2.68
2023-02-26T11:12:14.797Z,2.70
2023-02-26T11:16:19.655Z,2.69
2023-02-26T11:20:32.380Z,2.63
2023-02-26T11:24:38.422Z,2.51
2023-02-26T11:28:45.938Z,2.41
2023-02-26T11:32:52.762Z,2.41
2023-02-26T11:37:01.275Z,2.47
2023-02-26T11:41:04.722Z,2.47
2023-02-26T11:45:09.144Z,2.55
2023-02-26T11:49:15.077Z,2.45
2023-02-26T11:53:22.990Z,2.22
2023-02-26T11:57:29.084Z,2.09
2023-02-26T12:01:32.232Z,2.09
2023-02-26T12:05:36.880Z,2.21
2023-02-26T12:09:41.528Z,2.35
2023-02-26T12:13:58.831Z,2.42
2023-02-26T12:18:22.486Z,2.40
2023-02-26T12:22:45.030Z,2.43
2023-02-26T12:27:00.609Z,2.46
2023-02-26T12:31:30.838Z,2.51
2023-02-26T12:35:44.076Z,2.52
2023-02-26T12:39:59.056Z,2.57
2023-02-26T12:44:08.114Z,2.64
2023-02-26T12:48:30.818Z,2.73
2023-02-26T12:52:48.337Z,2.75
2023-02-26T12:57:22.407Z,2.70
2023-02-26T13:02:00.926Z,2.66
2023-02-26T13:06:35.809Z,2.63
2023-02-26T13:10:51.577Z,2.65
2023-02-26T13:15:04.071Z,2.72
2023-02-26T13:19:20.691Z,2.70
2023-02-26T13:23:26.756Z,2.66
2023-02-26T13:27:34.932Z,2.64
2023-02-26T13:31:43.664Z,2.63
2023-02-26T13:35:51.324Z,2.62
2023-02-26T13:40:07.477Z,2.66
2023-02-26T13:44:26.235Z,2.64
2023-02-26T13:48:41.901Z,2.67
2023-02-26T13:52:54.953Z,2.63
2023-02-26T13:57:10.228Z,2.70
2023-02-26T14:01:18.186Z,2.70
2023-02-26T14:05:54.754Z,2.66
2023-02-26T14:10:03.264Z,2.71
2023-02-26T14:14:12.805Z,2.66
2023-02-26T14:18:28.958Z,2.48
2023-02-26T14:22:36.128Z,2.39
2023-02-26T14:26:44.919Z,2.32
2023-02-26T14:30:51.314Z,2.20
2023-02-26T14:34:57.861Z,2.15
2023-02-26T14:39:05.034Z,2.19
2023-02-26T14:43:18.254Z,2.12
2023-02-26T14:47:21.884Z,2.10
2023-02-26T14:51:34.956Z,2.17
2023-02-26T14:55:48.826Z,2.16
2023-02-26T15:00:10.360Z,2.12
2023-02-26T15:04:32.358Z,2.13
2023-02-26T15:08:48.535Z,2.12
2023-02-26T15:13:14.564Z,2.09
2023-02-26T15:17:31.574Z,2.05
2023-02-26T15:21:43.874Z,2.05
2023-02-26T15:25:50.584Z,2.01
2023-02-26T15:29:53.769Z,2.00
2023-02-26T15:33:59.742Z,2.03
2023-02-26T15:38:04.235Z,1.99
2023-02-26T15:42:07.360Z,2.01
2023-02-26T15:46:11.124Z,1.97
2023-02-26T15:50:18.326Z,1.96
2023-02-26T15:54:24.931Z,1.98
2023-02-26T15:58:36.031Z,1.96
2023-02-26T16:02:39.012Z,1.96
2023-02-26T16:06:48.246Z,1.95
2023-02-26T16:10:53.239Z,1.90
2023-02-26T16:15:00.576Z,1.89
2023-02-26T16:19:03.902Z,1.89
2023-02-26T16:23:13.492Z,1.88
2023-02-26T16:27:16.956Z,1.82
2023-02-26T16:31:23.185Z,1.82
2023-02-26T16:35:34.783Z,1.80
2023-02-26T16:39:45.404Z,1.74
2023-02-26T16:43:54.420Z,1.70
2023-02-26T16:47:59.901Z,1.70
2023-02-26T16:52:04.549Z,1.69
2023-02-26T16:56:10.915Z,1.65
2023-02-26T17:00:19.973Z,1.61
2023-02-26T17:04:26.824Z,1.54
2023-02-26T17:08:34.370Z,1.52
2023-02-26T17:12:46.383Z,1.49
2023-02-26T17:16:50.545Z,1.50
2023-02-26T17:20:54.427Z,1.46
2023-02-26T17:24:57.629Z,1.46
2023-02-26T17:29:02.315Z,1.42
2023-02-26T17:33:07.815Z,1.46
2023-02-26T17:37:11.944Z,1.43
2023-02-26T17:41:18.027Z,1.41
2023-02-26T17:45:22.804Z,1.38
2023-02-26T17:49:25.802Z,1.40
2023-02-26T17:53:29.713Z,1.36
2023-02-26T17:57:32.789Z,1.36
2023-02-26T18:01:38.175Z,1.35
2023-02-26T18:05:41.759Z,1.33
2023-02-26T18:09:45.187Z,1.34
2023-02-26T18:13:48.332Z,1.31
2023-02-26T18:17:52.862Z,1.25
2023-02-26T18:21:56.436Z,1.25
2023-02-26T18:25:59.692Z,1.20
2023-02-26T18:30:04.644Z,1.18
2023-02-26T18:34:09.386Z,1.12
2023-02-26T18:38:13.944Z,1.08
2023-02-26T18:42:22.235Z,1.01
2023-02-26T18:46:26.994Z,0.99
2023-02-26T18:50:32.469Z,0.97
2023-02-26T18:54:36.914Z,0.94
2023-02-26T18:58:40.590Z,0.88
2023-02-26T19:02:45.692Z,0.86
2023-02-26T19:06:50.315Z,0.86
2023-02-26T19:10:53.467Z,0.83
2023-02-26T19:14:56.509Z,0.78
2023-02-26T19:18:59.914Z,0.79
2023-02-26T19:23:05.832Z,0.76
2023-02-26T19:27:09.408Z,0.72
2023-02-26T19:31:12.750Z,0.69
2023-02-26T19:35:16.011Z,0.68
2023-02-26T19:39:20.857Z,0.64
2023-02-26T19:43:23.843Z,0.63
2023-02-26T19:47:27.108Z,0.62
2023-02-26T19:51:30.667Z,0.57
2023-02-26T19:55:35.116Z,0.56
2023-02-26T19:59:38.096Z,0.54
2023-02-26T20:03:41.252Z,0.52
2023-02-26T20:07:44.836Z,0.48
2023-02-26T20:11:50.479Z,0.41
2023-02-26T20:15:53.672Z,0.40
2023-02-26T20:19:56.816Z,0.36
2023-02-26T20:24:00.006Z,0.33
2023-02-26T20:28:04.533Z,0.30
2023-02-26T20:32:07.910Z,0.26
2023-02-26T20:36:12.042Z,0.21
2023-02-26T20:40:15.245Z,0.23
2023-02-26T20:44:19.810Z,0.20
2023-02-26T20:48:22.828Z,0.20
2023-02-26T20:52:25.921Z,0.19
2023-02-26T20:56:28.934Z,0.17
2023-02-26T21:00:33.864Z,0.19
2023-02-26T21:04:36.926Z,0.18
2023-02-26T21:08:40.103Z,0.17
2023-02-26T21:12:43.615Z,0.17
2023-02-26T21:16:48.092Z,0.20
2023-02-26T21:20:51.110Z,0.18
2023-02-26T21:24:54.696Z,0.18
2023-02-26T21:28:57.713Z,0.21
2023-02-26T21:33:02.395Z,0.21
2023-02-26T21:37:07.531Z,0.21
2023-02-26T21:41:10.662Z,0.21
2023-02-26T21:45:14.030Z,0.20
2023-02-26T21:49:18.762Z,0.21
2023-02-26T21:53:21.752Z,0.22
2023-02-26T21:57:25.117Z,0.17
2023-02-26T22:01:28.632Z,0.18
2023-02-26T22:05:33.340Z,0.20
2023-02-26T22:09:36.353Z,0.14
2023-02-26T22:13:39.594Z,0.17
2023-02-26T22:17:42.661Z,0.13
2023-02-26T22:21:47.231Z,0.16
2023-02-26T22:25:50.643Z,0.13
2023-02-26T22:29:53.707Z,0.15
2023-02-26T22:33:57.514Z,0.12
2023-02-26T22:38:01.991Z,0.11
2023-02-26T22:42:05.035Z,0.13
2023-02-26T22:46:08.134Z,0.10
2023-02-26T22:50:12.475Z,0.07
2023-02-26T22:54:16.973Z,0.04
2023-02-26T22:58:19.943Z,0.02
2023-02-26T23:02:23.038Z,-0.00
2023-02-26T23:06:26.027Z,-0.02
2023-02-26T23:10:30.469Z,-0.04
2023-02-26T23:14:33.494Z,-0.05
2023-02-26T23:18:37.308Z,-0.07
2023-02-26T23:22:40.532Z,-0.07
2023-02-26T23:26:45.572Z,-0.12
2023-02-26T23:30:48.684Z,-0.13
2023-02-26T23:34:52.039Z,-0.14
2023-02-26T23:38:55.006Z,-0.18
2023-02-26T23:42:59.792Z,-0.19
2023-02-26T23:47:02.904Z,-0.22
2023-02-26T23:51:06.407Z,-0.20
2023-02-26T23:55:10.498Z,-0.19
2023-02-26T23:59:14.938Z,-0.22
